Time;durP1;ratioP1;P1;durP2;ratioP2;P2;SDS_P1;SDS_P2;PMS_P1;PMS_P2;Temp;Humidity;BMP_temperature;BMP_pressure;BME280_temperature;BME280_humidity;BME280_pressure;Samples;Min_cycle;Max_cycle;Signal;HPM_P1;HPM_P2
2022/01/28 08:02:02;;;;;;;19.35;10.07;;;1.80;96.70;;;;;;5067638;28;20396;-56
2022/01/28 08:04:29;;;;;;;17.27;10.02;;;1.90;96.40;;;;;;5056071;28;20099;-58
2022/01/28 08:06:56;;;;;;;18.38;9.57;;;1.90;96.30;;;;;;5050804;28;20045;-54
2022/01/28 08:09:23;;;;;;;14.95;9.32;;;2.00;96.20;;;;;;5058970;28;20073;-58
2022/01/28 08:11:50;;;;;;;20.40;8.75;;;2.10;96.00;;;;;;5059802;28;20045;-58
2022/01/28 08:14:17;;;;;;;16.95;8.68;;;2.20;95.90;;;;;;5066940;28;20036;-57
2022/01/28 08:16:43;;;;;;;13.77;8.13;;;2.40;95.70;;;;;;5068990;28;20033;-57
2022/01/28 08:19:10;;;;;;;14.52;8.38;;;2.50;95.50;;;;;;5069062;28;20048;-57
2022/01/28 08:21:37;;;;;;;13.20;8.13;;;2.50;95.20;;;;;;5068756;28;20040;-54
2022/01/28 08:24:04;;;;;;;11.93;7.68;;;2.60;95.00;;;;;;5067911;28;20120;-59
2022/01/28 08:26:30;;;;;;;14.98;7.75;;;2.70;94.70;;;;;;5057447;28;20049;-55
2022/01/28 08:28:57;;;;;;;14.63;8.20;;;2.80;94.60;;;;;;5053685;28;20051;-58
2022/01/28 08:31:24;;;;;;;14.40;8.27;;;2.80;94.50;;;;;;5050519;28;20045;-58
2022/01/28 08:33:51;;;;;;;17.23;8.63;;;2.80;94.80;;;;;;5049625;28;20059;-54
2022/01/28 08:36:19;;;;;;;13.75;8.13;;;2.90;94.70;;;;;;5052996;28;20484;-54
2022/01/28 08:38:48;;;;;;;15.80;8.50;;;2.90;94.60;;;;;;5068588;28;20033;-57
2022/01/28 08:41:15;;;;;;;20.70;8.32;;;3.00;94.80;;;;;;5068460;28;20036;-62
2022/01/28 08:43:42;;;;;;;16.52;10.65;;;3.10;94.80;;;;;;5068507;28;20072;-58
2022/01/28 08:46:09;;;;;;;19.48;11.85;;;3.20;94.60;;;;;;5056494;28;20041;-60
2022/01/28 08:48:36;;;;;;;22.95;11.68;;;3.20;94.70;;;;;;5049231;28;20049;-55
2022/01/28 08:51:02;;;;;;;22.67;13.55;;;3.30;94.90;;;;;;5049213;28;20048;-58
2022/01/28 08:53:29;;;;;;;22.17;13.77;;;3.40;94.70;;;;;;5049255;28;20065;-57
2022/01/28 08:55:57;;;;;;;24.85;14.30;;;3.40;94.40;;;;;;5049272;28;20045;-58
2022/01/28 08:58:24;;;;;;;24.90;14.10;;;3.50;94.30;;;;;;5048907;28;20529;-61
2022/01/28 09:00:51;;;;;;;23.88;12.40;;;3.50;94.10;;;;;;5053332;28;20046;-56
2022/01/28 09:03:18;;;;;;;17.63;10.63;;;3.60;94.20;;;;;;5049082;28;20044;-61
2022/01/28 09:05:45;;;;;;;17.85;10.27;;;3.60;94.20;;;;;;5048789;28;20373;-57
2022/01/28 09:08:11;;;;;;;22.15;12.07;;;3.60;94.20;;;;;;5048648;28;20120;-55
2022/01/28 09:10:42;;;;;;;24.23;12.85;;;3.70;94.30;;;;;;5048831;28;20070;-58
2022/01/28 09:15:35;;;;;;;19.98;10.82;;;3.80;94.30;;;;;;5035582;28;20049;-57
2022/01/28 09:18:02;;;;;;;16.85;9.57;;;3.80;94.30;;;;;;5035479;28;20038;-60
2022/01/28 09:20:29;;;;;;;21.25;11.20;;;3.80;94.40;;;;;;5035282;28;20041;-59
2022/01/28 09:22:56;;;;;;;17.48;10.57;;;3.90;94.40;;;;;;5035662;28;20048;-63
2022/01/28 09:25:23;;;;;;;18.17;9.48;;;3.90;94.50;;;;;;5054736;28;20067;-59
2022/01/28 09:27:49;;;;;;;21.83;9.77;;;4.00;94.50;;;;;;5054359;28;20029;-57
2022/01/28 09:30:16;;;;;;;15.27;9.18;;;4.00;94.50;;;;;;5053043;28;20110;-56
2022/01/28 09:32:43;;;;;;;17.65;8.82;;;4.10;94.50;;;;;;5049708;28;20076;-57
2022/01/28 09:35:10;;;;;;;15.45;8.82;;;4.10;94.40;;;;;;5035367;28;20373;-60
2022/01/28 09:37:36;;;;;;;18.98;8.93;;;4.20;94.60;;;;;;5036296;28;20121;-58
2022/01/28 09:40:03;;;;;;;17.55;8.93;;;4.30;94.50;;;;;;5036375;28;20048;-58
2022/01/28 09:42:33;;;;;;;13.98;6.57;;;4.30;94.70;;;;;;5038719;28;20048;-53
2022/01/28 09:45:01;;;;;;;9.82;4.80;;;4.40;94.80;;;;;;5019544;28;20041;-58
2022/01/28 09:47:28;;;;;;;11.05;4.70;;;4.60;94.70;;;;;;5034755;28;20041;-57
2022/01/28 09:49:55;;;;;;;9.93;4.57;;;4.70;94.60;;;;;;5034739;28;20079;-54
2022/01/28 09:52:21;;;;;;;11.30;4.28;;;4.80;94.60;;;;;;5045033;28;20047;-55
2022/01/28 09:54:48;;;;;;;9.27;4.30;;;4.90;94.50;;;;;;5051819;28;20041;-59
2022/01/28 09:57:15;;;;;;;12.82;4.78;;;5.00;94.50;;;;;;5053543;28;20476;-57
2022/01/28 09:59:42;;;;;;;20.52;5.45;;;5.10;94.80;;;;;;5053024;28;20393;-58
2022/01/28 10:02:09;;;;;;;23.98;5.70;;;5.20;94.70;;;;;;5051181;28;20051;-61
2022/01/28 10:04:36;;;;;;;18.02;5.13;;;5.30;94.60;;;;;;5042465;28;20484;-61
2022/01/28 10:07:02;;;;;;;14.43;5.13;;;5.30;94.50;;;;;;5034518;28;20108;-57
2022/01/28 10:09:29;;;;;;;8.15;4.00;;;5.40;94.50;;;;;;5034356;28;20068;-57
2022/01/28 10:11:57;;;;;;;8.68;4.35;;;5.50;94.50;;;;;;5034391;28;20063;-58
2022/01/28 10:14:27;;;;;;;9.45;4.38;;;5.60;94.40;;;;;;5034171;28;20038;-54
2022/01/28 10:16:54;;;;;;;10.25;4.32;;;5.60;94.50;;;;;;5034292;28;20037;-55
2022/01/28 10:19:20;;;;;;;10.32;4.38;;;5.80;94.40;;;;;;5035923;28;20083;-58
2022/01/28 10:21:47;;;;;;;8.32;3.83;;;5.80;94.40;;;;;;5035007;28;20409;-59
2022/01/28 10:24:14;;;;;;;13.48;4.45;;;5.90;94.30;;;;;;5033583;28;20049;-58
2022/01/28 10:26:41;;;;;;;11.40;3.78;;;6.10;94.20;;;;;;5034145;28;20048;-59
2022/01/28 10:29:08;;;;;;;11.20;4.13;;;6.20;94.00;;;;;;5035228;28;20039;-59
2022/01/28 10:31:35;;;;;;;13.75;3.80;;;6.20;94.00;;;;;;5042784;28;20082;-59
2022/01/28 10:34:02;;;;;;;10.05;3.75;;;6.40;93.90;;;;;;5033997;28;20041;-56
2022/01/28 10:36:29;;;;;;;8.35;3.58;;;6.40;93.80;;;;;;5033916;28;20044;-59
2022/01/28 10:38:55;;;;;;;10.40;3.70;;;6.50;93.80;;;;;;5033732;28;20107;-58
2022/01/28 10:41:25;;;;;;;8.52;3.60;;;6.60;93.70;;;;;;5033792;28;20047;-59
2022/01/28 10:43:52;;;;;;;9.02;3.47;;;6.70;93.50;;;;;;5033736;28;20123;-57
2022/01/28 10:46:19;;;;;;;9.70;4.03;;;6.70;93.40;;;;;;5033581;28;20065;-56
2022/01/28 10:48:46;;;;;;;9.10;3.30;;;6.80;93.30;;;;;;5034205;28;20045;-59
2022/01/28 10:51:13;;;;;;;9.48;3.40;;;6.80;93.20;;;;;;5036010;28;20041;-54
2022/01/28 10:53:40;;;;;;;11.80;3.50;;;6.90;93.10;;;;;;5039474;28;20063;-57
2022/01/28 10:56:07;;;;;;;11.02;3.15;;;6.90;93.00;;;;;;5052500;28;20527;-57
2022/01/28 10:58:33;;;;;;;8.48;2.90;;;6.90;92.90;;;;;;5050427;28;20416;-52
2022/01/28 11:01:01;;;;;;;7.95;2.60;;;7.00;92.80;;;;;;5036555;28;20049;-55
2022/01/28 11:03:28;;;;;;;7.80;2.60;;;7.00;92.60;;;;;;5039400;28;20508;-58
2022/01/28 11:05:58;;;;;;;7.55;2.88;;;7.10;92.40;;;;;;5036426;28;20464;-52
2022/01/28 11:08:25;;;;;;;10.50;3.28;;;7.20;92.00;;;;;;5043022;28;20041;-54
2022/01/28 11:10:52;;;;;;;10.50;3.88;;;7.30;92.10;;;;;;5052131;28;20048;-55
2022/01/28 11:13:18;;;;;;;10.63;2.72;;;7.30;91.70;;;;;;5052475;28;20037;-58
2022/01/28 11:15:45;;;;;;;9.15;2.80;;;7.40;91.50;;;;;;5052542;28;20100;-57
2022/01/28 11:18:12;;;;;;;6.50;2.38;;;7.50;91.00;;;;;;5048921;28;20219;-59
2022/01/28 11:20:39;;;;;;;11.57;3.75;;;7.60;90.80;;;;;;5033051;28;20037;-57
2022/01/28 11:23:07;;;;;;;11.48;3.42;;;7.70;90.70;;;;;;5033532;28;20587;-54
2022/01/28 11:25:36;;;;;;;11.63;3.78;;;7.70;90.50;;;;;;5044484;28;20100;-55
2022/01/28 11:28:03;;;;;;;7.35;3.10;;;7.80;90.40;;;;;;5047102;28;20033;-56
2022/01/28 11:30:29;;;;;;;8.55;3.45;;;7.90;90.20;;;;;;5039479;28;20087;-57
2022/01/28 11:33:00;;;;;;;11.55;3.78;;;7.90;90.20;;;;;;5052019;28;20041;-56
2022/01/28 11:35:27;;;;;;;10.55;4.18;;;7.90;90.10;;;;;;5051610;28;20048;-59
2022/01/28 11:37:56;;;;;;;8.25;3.33;;;8.00;89.90;;;;;;5048781;28;20099;-58
2022/01/28 11:40:23;;;;;;;9.38;3.72;;;8.00;89.10;;;;;;5032946;28;20042;-60
2022/01/28 11:42:50;;;;;;;7.15;2.95;;;8.10;89.00;;;;;;5032764;28;20065;-57
2022/01/28 11:45:17;;;;;;;6.70;2.88;;;8.20;87.60;;;;;;5032716;28;20120;-57
2022/01/28 11:47:43;;;;;;;8.32;2.90;;;8.20;87.50;;;;;;5032526;28;20497;-60
2022/01/28 11:50:10;;;;;;;7.55;2.55;;;8.30;86.80;;;;;;5032891;28;20511;-58
2022/01/28 11:52:37;;;;;;;7.07;2.95;;;8.40;86.40;;;;;;5032588;28;20056;-57
2022/01/28 11:55:04;;;;;;;7.55;2.60;;;8.40;86.30;;;;;;5049858;28;20124;-55
2022/01/28 11:57:31;;;;;;;9.70;3.35;;;8.50;85.40;;;;;;5050285;28;20425;-60
2022/01/28 11:59:58;;;;;;;4.68;2.70;;;8.60;85.40;;;;;;5051580;28;20045;-59
2022/01/28 12:02:24;;;;;;;11.35;2.45;;;8.60;85.40;;;;;;5052090;28;20508;-57
2022/01/28 12:04:52;;;;;;;8.00;2.70;;;8.60;84.90;;;;;;5051811;28;20057;-56
2022/01/28 12:07:19;;;;;;;6.43;2.85;;;8.70;85.00;;;;;;5051397;28;20055;-58
2022/01/28 12:09:45;;;;;;;8.25;2.95;;;8.70;84.50;;;;;;5051658;28;20128;-58
2022/01/28 12:12:13;;;;;;;5.13;2.40;;;8.80;84.30;;;;;;5050383;28;20127;-58
2022/01/28 12:14:40;;;;;;;8.00;2.47;;;8.90;83.30;;;;;;5051597;28;20131;-54
2022/01/28 12:17:07;;;;;;;8.05;2.65;;;8.90;83.50;;;;;;5051247;28;20041;-59
2022/01/28 12:19:34;;;;;;;6.18;2.90;;;9.00;82.70;;;;;;5051366;28;20437;-53
2022/01/28 12:22:03;;;;;;;6.97;2.55;;;9.00;81.70;;;;;;5051760;28;20048;-58
2022/01/28 12:24:30;;;;;;;8.55;2.83;;;9.10;81.70;;;;;;5051721;28;20083;-59
2022/01/28 12:26:57;;;;;;;8.85;3.33;;;9.10;81.80;;;;;;5051247;28;20068;-58
2022/01/28 12:29:24;;;;;;;6.15;2.30;;;9.10;81.30;;;;;;5051520;28;20056;-56
2022/01/28 12:32:00;;;;;;;8.88;2.40;;;9.20;80.00;;;;;;5051444;28;20069;-54
2022/01/28 12:34:27;;;;;;;7.35;2.10;;;9.20;80.00;;;;;;5051465;28;20565;-59
2022/01/28 12:36:56;;;;;;;7.50;2.08;;;9.20;80.40;;;;;;5051324;28;20043;-58
2022/01/28 12:39:35;;;;;;;7.80;2.10;;;9.20;80.50;;;;;;5050319;28;20052;-54
2022/01/28 12:42:22;;;;;;;10.80;2.53;;;9.30;79.60;;;;;;5049794;28;20132;-55
2022/01/28 12:44:48;;;;;;;6.30;2.55;;;9.30;79.90;;;;;;5050503;28;20051;-58
2022/01/28 12:47:16;;;;;;;11.60;2.60;;;9.30;78.90;;;;;;5051147;28;20399;-56
2022/01/28 12:49:43;;;;;;;7.07;2.10;;;9.30;79.70;;;;;;5053480;28;20120;-55
2022/01/28 12:52:10;;;;;;;9.95;2.40;;;9.30;78.70;;;;;;5039644;28;20366;-60
2022/01/28 12:54:37;;;;;;;6.55;2.10;;;9.40;78.60;;;;;;5047813;28;20044;-56
2022/01/28 12:57:04;;;;;;;10.35;2.63;;;9.30;77.40;;;;;;5053156;28;20037;-59
2022/01/28 12:59:31;;;;;;;9.48;2.50;;;9.30;78.80;;;;;;5053754;28;20066;-60
2022/01/28 13:01:57;;;;;;;8.95;2.70;;;9.40;78.60;;;;;;5054910;28;20061;-58
2022/01/28 13:04:37;;;;;;;10.57;2.65;;;9.40;78.60;;;;;;5054964;28;20045;-57
2022/01/28 13:09:50;;;;;;;8.23;2.45;;;9.50;78.10;;;;;;5041239;28;20068;-57
2022/01/28 13:12:16;;;;;;;7.97;2.70;;;9.60;78.00;;;;;;5038406;28;20049;-61
2022/01/28 13:14:46;;;;;;;11.77;2.55;;;9.60;77.30;;;;;;5046349;28;20126;-56
2022/01/28 13:17:12;;;;;;;9.00;2.58;;;9.60;78.00;;;;;;5037858;28;20037;-56
2022/01/28 13:19:39;;;;;;;7.22;2.50;;;9.60;78.10;;;;;;5046830;28;20136;-55
2022/01/28 13:22:06;;;;;;;8.00;2.08;;;9.60;77.50;;;;;;5054475;28;20064;-55
2022/01/28 13:24:33;;;;;;;11.52;2.85;;;9.60;77.90;;;;;;5053399;28;20068;-55
2022/01/28 13:26:59;;;;;;;12.80;2.45;;;9.50;77.70;;;;;;5058954;28;20087;-58
2022/01/28 13:29:26;;;;;;;8.25;2.55;;;9.50;77.70;;;;;;5039668;28;20374;-58
2022/01/28 13:31:59;;;;;;;11.88;2.60;;;9.50;77.60;;;;;;5039939;28;20041;-58
2022/01/28 13:34:26;;;;;;;7.15;2.20;;;9.50;77.90;;;;;;5043881;28;20036;-58
2022/01/28 13:36:53;;;;;;;10.60;2.13;;;9.50;78.10;;;;;;5050706;28;20040;-57
2022/01/28 13:39:20;;;;;;;8.07;2.90;;;9.50;78.40;;;;;;5041374;28;20033;-59
2022/01/28 13:41:50;;;;;;;7.43;2.35;;;9.40;77.80;;;;;;5044668;28;20501;-54
2022/01/28 13:44:17;;;;;;;5.22;2.38;;;9.40;78.10;;;;;;5043646;28;20369;-55
2022/01/28 13:46:48;;;;;;;9.00;2.70;;;9.40;78.20;;;;;;5043337;28;20168;-57
2022/01/28 13:49:15;;;;;;;6.60;3.13;;;9.30;78.70;;;;;;5059325;28;20103;-58
2022/01/28 13:51:42;;;;;;;9.50;3.10;;;9.40;79.00;;;;;;5042165;28;20041;-58
2022/01/28 13:56:35;;;;;;;7.82;3.38;;;9.40;79.10;;;;;;5035009;28;20508;-58
2022/01/28 13:59:02;;;;;;;11.65;4.07;;;9.50;79.60;;;;;;5033795;28;20113;-60
2022/01/28 14:01:29;;;;;;;9.43;4.13;;;9.50;79.50;;;;;;5042260;28;20450;-60
2022/01/28 14:03:56;;;;;;;10.73;4.20;;;9.50;79.20;;;;;;5053934;28;20048;-58
2022/01/28 14:06:23;;;;;;;9.10;4.00;;;9.50;79.60;;;;;;5053804;28;20045;-55
2022/01/28 14:08:54;;;;;;;8.80;3.97;;;9.60;79.60;;;;;;5053902;28;20049;-59
2022/01/28 14:11:21;;;;;;;9.00;3.90;;;9.60;79.80;;;;;;5053783;28;20051;-60
2022/01/28 14:13:48;;;;;;;9.95;3.50;;;9.60;80.20;;;;;;5053855;28;20055;-54
2022/01/28 14:16:15;;;;;;;10.70;3.78;;;9.60;80.90;;;;;;5053688;28;20052;-56
2022/01/28 14:18:42;;;;;;;8.45;4.20;;;9.70;80.20;;;;;;5053935;28;20048;-60
2022/01/28 14:21:09;;;;;;;16.08;4.50;;;9.70;80.00;;;;;;5053486;28;20049;-59
2022/01/28 14:23:36;;;;;;;11.95;4.50;;;9.70;80.50;;;;;;5053825;28;20403;-60
2022/01/28 14:26:04;;;;;;;12.23;4.03;;;9.70;80.60;;;;;;5052350;28;20056;-57
2022/01/28 14:28:39;;;;;;;12.02;3.83;;;9.80;81.10;;;;;;5053355;28;20093;-57
2022/01/28 14:31:08;;;;;;;12.68;4.07;;;9.70;81.40;;;;;;5053637;28;20132;-55
2022/01/28 14:33:35;;;;;;;13.88;4.10;;;9.70;81.70;;;;;;5053426;28;20128;-54
2022/01/28 14:36:02;;;;;;;10.93;3.40;;;9.70;81.80;;;;;;5039979;28;20037;-54
2022/01/28 14:38:29;;;;;;;11.77;4.95;;;9.70;82.30;;;;;;5034120;28;20481;-58
2022/01/28 14:40:56;;;;;;;12.45;3.67;;;9.70;82.10;;;;;;5034186;28;20040;-53
2022/01/28 14:43:23;;;;;;;9.95;4.28;;;9.70;82.70;;;;;;5034382;28;20448;-56
2022/01/28 14:45:49;;;;;;;10.95;3.80;;;9.60;82.40;;;;;;5035545;28;20489;-58
2022/01/28 14:48:20;;;;;;;10.80;3.95;;;9.60;82.80;;;;;;5034590;28;20041;-53
2022/01/28 14:50:47;;;;;;;9.82;3.78;;;9.60;83.10;;;;;;5034205;28;20045;-57
2022/01/28 14:53:14;;;;;;;11.13;4.70;;;9.60;83.50;;;;;;5035603;28;20044;-58
2022/01/28 14:55:42;;;;;;;10.20;4.55;;;9.50;83.90;;;;;;5033766;28;20034;-59
2022/01/28 14:58:09;;;;;;;10.38;3.97;;;9.50;84.60;;;;;;5036191;28;20175;-56
2022/01/28 15:00:36;;;;;;;13.00;4.03;;;9.50;85.30;;;;;;5036165;28;20059;-55
2022/01/28 15:03:04;;;;;;;14.05;4.90;;;9.40;85.60;;;;;;5053074;28;20071;-58
2022/01/28 15:05:31;;;;;;;10.77;4.15;;;9.40;85.80;;;;;;5054468;28;20435;-58
2022/01/28 15:08:07;;;;;;;10.10;3.88;;;9.30;86.10;;;;;;5053759;28;20076;-57
2022/01/28 15:10:35;;;;;;;12.20;4.30;;;9.30;84.90;;;;;;5052571;28;20051;-57
2022/01/28 15:13:02;;;;;;;7.97;3.80;;;9.30;84.30;;;;;;5053221;28;20179;-56
2022/01/28 15:15:31;;;;;;;9.85;4.10;;;9.40;83.80;;;;;;5052918;28;20048;-56
2022/01/28 15:17:58;;;;;;;11.30;4.60;;;9.40;83.50;;;;;;5052693;28;20041;-60
2022/01/28 15:20:27;;;;;;;8.77;3.88;;;9.50;83.50;;;;;;5051513;28;20045;-58
2022/01/28 15:22:54;;;;;;;11.07;4.22;;;9.50;83.70;;;;;;5052578;28;20595;-57
2022/01/28 15:25:21;;;;;;;10.48;4.22;;;9.50;83.60;;;;;;5052610;28;20124;-60
2022/01/28 15:27:51;;;;;;;9.82;3.60;;;9.50;83.40;;;;;;5051678;28;20147;-53
2022/01/28 15:35:57;;;;;;;10.45;3.83;;;9.40;83.30;;;;;;5038679;28;20167;-55
2022/01/28 15:38:24;;;;;;;10.40;3.63;;;9.40;83.60;;;;;;5033141;28;20402;-60
2022/01/28 15:40:51;;;;;;;9.73;3.55;;;9.40;83.90;;;;;;5033149;28;20041;-57
2022/01/28 15:43:20;;;;;;;11.35;3.97;;;9.40;83.10;;;;;;5033357;28;20125;-55
2022/01/28 15:45:47;;;;;;;9.48;3.22;;;9.30;83.50;;;;;;5033273;28;20041;-57
2022/01/28 15:48:15;;;;;;;9.45;3.65;;;9.30;83.70;;;;;;5033077;28;20388;-56
2022/01/28 15:50:42;;;;;;;10.93;3.80;;;9.20;84.00;;;;;;5033010;28;20040;-57
2022/01/28 15:53:08;;;;;;;10.38;3.63;;;9.20;84.20;;;;;;5031608;28;20041;-56
2022/01/28 15:55:35;;;;;;;9.27;3.90;;;9.20;84.10;;;;;;5032977;28;20037;-59
2022/01/28 15:58:02;;;;;;;11.38;3.58;;;9.20;84.20;;;;;;5032656;28;20045;-59
2022/01/28 16:00:29;;;;;;;12.43;4.38;;;9.20;84.70;;;;;;5032610;28;20050;-54
2022/01/28 16:02:56;;;;;;;9.75;4.05;;;9.10;84.90;;;;;;5049017;28;20041;-55
2022/01/28 16:05:23;;;;;;;11.48;4.05;;;9.10;85.10;;;;;;5040348;28;20381;-56
2022/01/28 16:07:49;;;;;;;12.52;4.28;;;9.00;85.40;;;;;;5044694;28;20120;-57
2022/01/28 16:10:21;;;;;;;12.27;4.13;;;9.00;85.80;;;;;;5051902;28;20459;-58
2022/01/28 16:15:40;;;;;;;9.77;3.85;;;8.90;86.40;;;;;;5050461;28;20051;-59
2022/01/28 16:18:11;;;;;;;11.90;3.90;;;8.90;86.70;;;;;;5050770;28;20037;-59
2022/01/28 16:20:41;;;;;;;12.35;4.30;;;8.90;86.70;;;;;;5051889;28;20396;-56
2022/01/28 16:23:08;;;;;;;14.30;4.35;;;8.90;86.70;;;;;;5054325;28;20131;-59
2022/01/28 16:25:34;;;;;;;12.27;4.07;;;8.80;86.50;;;;;;5055743;28;20052;-57
2022/01/28 16:28:01;;;;;;;10.05;3.88;;;8.80;86.50;;;;;;5055779;28;20041;-59
2022/01/28 16:30:28;;;;;;;9.05;4.07;;;8.70;86.70;;;;;;5055664;28;20049;-57
2022/01/28 16:32:55;;;;;;;11.57;4.20;;;8.60;86.80;;;;;;5055712;28;20081;-59
2022/01/28 16:35:22;;;;;;;11.25;4.10;;;8.60;87.20;;;;;;5054452;28;20041;-60
2022/01/28 16:37:49;;;;;;;11.25;4.28;;;8.50;87.30;;;;;;5055386;28;20037;-57
2022/01/28 16:40:17;;;;;;;14.70;4.60;;;8.40;87.70;;;;;;5055787;28;20407;-57
2022/01/28 16:42:53;;;;;;;13.32;4.50;;;8.40;88.00;;;;;;5036407;28;20124;-53
2022/01/28 16:45:19;;;;;;;11.63;5.45;;;8.40;88.60;;;;;;5036474;28;20468;-59
2022/01/28 16:47:48;;;;;;;10.82;4.85;;;8.30;88.80;;;;;;5036355;28;20120;-59
2022/01/28 16:50:15;;;;;;;14.35;5.22;;;8.20;88.90;;;;;;5036180;28;20508;-55
2022/01/28 16:52:42;;;;;;;10.32;4.65;;;8.20;89.10;;;;;;5036106;28;20428;-60
2022/01/28 16:55:16;;;;;;;16.27;5.28;;;8.10;89.10;;;;;;5036075;28;20049;-57
2022/01/28 16:57:43;;;;;;;11.68;5.00;;;8.10;89.30;;;;;;5036155;28;20037;-54
2022/01/28 17:00:10;;;;;;;9.20;5.15;;;8.10;89.70;;;;;;5035946;28;20045;-57
2022/01/28 17:02:37;;;;;;;12.15;5.18;;;8.00;89.90;;;;;;5036130;28;20548;-58
2022/01/28 17:05:04;;;;;;;9.10;5.38;;;7.90;90.20;;;;;;5049073;28;20427;-58
2022/01/28 17:07:31;;;;;;;12.80;5.57;;;7.90;90.30;;;;;;5054945;28;20053;-55
2022/01/28 17:10:04;;;;;;;10.43;5.20;;;7.80;90.40;;;;;;5055155;28;20562;-57
2022/01/28 17:15:02;;;;;;;12.23;5.95;;;7.70;90.70;;;;;;5054992;28;20047;-56
2022/01/28 17:17:34;;;;;;;14.43;5.80;;;7.70;90.80;;;;;;5054844;28;20064;-58
2022/01/28 17:20:02;;;;;;;11.57;6.00;;;7.60;90.80;;;;;;5054746;28;20049;-55
2022/01/28 17:22:29;;;;;;;15.30;6.00;;;7.60;91.00;;;;;;5054771;28;20208;-55
2022/01/28 17:24:56;;;;;;;14.45;6.30;;;7.60;91.30;;;;;;5054863;28;20041;-54
2022/01/28 17:27:23;;;;;;;13.23;6.70;;;7.60;91.20;;;;;;5054716;28;20083;-58
2022/01/28 17:29:50;;;;;;;14.60;6.68;;;7.60;91.30;;;;;;5054535;28;20037;-53
2022/01/28 17:32:17;;;;;;;13.75;5.88;;;7.70;91.40;;;;;;5054292;28;20123;-56
2022/01/28 17:34:44;;;;;;;15.85;7.28;;;7.80;91.30;;;;;;5054092;28;20090;-54
2022/01/28 17:37:13;;;;;;;13.77;6.00;;;7.80;91.20;;;;;;5054593;28;20560;-55
2022/01/28 17:39:39;;;;;;;16.63;6.25;;;7.90;91.00;;;;;;5053251;28;20404;-59
2022/01/28 17:42:12;;;;;;;9.88;5.63;;;8.00;90.90;;;;;;5053335;28;20041;-58
2022/01/28 17:44:39;;;;;;;10.95;6.00;;;8.00;90.80;;;;;;5053245;28;20045;-57
2022/01/28 17:47:06;;;;;;;13.88;6.22;;;8.00;90.70;;;;;;5054340;28;20045;-56
2022/01/28 17:49:32;;;;;;;16.42;6.00;;;8.10;90.70;;;;;;5053264;28;20485;-56
2022/01/28 17:51:59;;;;;;;12.43;6.03;;;8.10;90.60;;;;;;5054243;28;20127;-58
2022/01/28 17:54:26;;;;;;;13.13;6.00;;;8.10;90.50;;;;;;5054072;28;20037;-59
2022/01/28 17:56:53;;;;;;;13.02;5.60;;;8.20;90.60;;;;;;5054062;28;20094;-55
2022/01/28 17:59:20;;;;;;;14.23;5.45;;;8.20;90.30;;;;;;5054158;28;20039;-55
2022/01/28 18:01:47;;;;;;;11.05;5.50;;;8.20;90.50;;;;;;5053115;28;20051;-53
2022/01/28 18:04:14;;;;;;;11.07;5.47;;;8.20;90.00;;;;;;5052767;28;20045;-58
2022/01/28 18:06:40;;;;;;;9.73;5.00;;;8.20;90.00;;;;;;5053715;28;20047;-58
2022/01/28 18:09:07;;;;;;;14.02;5.30;;;8.30;89.80;;;;;;5053864;28;20361;-55
2022/01/28 18:11:34;;;;;;;8.93;4.45;;;8.20;89.70;;;;;;5052860;28;20064;-59
2022/01/28 18:14:01;;;;;;;13.00;5.10;;;8.30;89.50;;;;;;5054130;28;20037;-53
2022/01/28 18:16:28;;;;;;;12.23;4.80;;;8.30;89.40;;;;;;5053528;28;20065;-55
2022/01/28 18:18:55;;;;;;;12.48;4.90;;;8.30;89.40;;;;;;5054099;28;20087;-58
2022/01/28 18:21:22;;;;;;;9.90;4.80;;;8.30;89.40;;;;;;5053716;28;20072;-57
2022/01/28 18:23:49;;;;;;;9.10;4.28;;;8.30;89.30;;;;;;5053655;28;20399;-57
2022/01/28 18:26:16;;;;;;;11.68;4.82;;;8.30;89.30;;;;;;5051030;28;20033;-58
2022/01/28 18:28:43;;;;;;;10.35;5.05;;;8.30;89.30;;;;;;5045556;28;20041;-58
2022/01/28 18:31:09;;;;;;;11.23;4.75;;;8.40;89.40;;;;;;5034069;28;20072;-55
2022/01/28 18:33:39;;;;;;;11.02;5.07;;;8.40;89.50;;;;;;5045488;28;20087;-54
2022/01/28 18:36:05;;;;;;;11.52;4.85;;;8.40;89.30;;;;;;5053134;28;20072;-59
2022/01/28 18:38:32;;;;;;;11.48;4.82;;;8.40;89.40;;;;;;5052228;28;20045;-58
2022/01/28 18:41:00;;;;;;;12.30;4.82;;;8.40;89.30;;;;;;5053409;28;20049;-59
2022/01/28 18:43:34;;;;;;;11.93;4.88;;;8.40;89.80;;;;;;5053649;28;20052;-55
2022/01/28 18:46:07;;;;;;;8.80;4.85;;;8.40;89.30;;;;;;5052658;28;20041;-57
2022/01/28 18:48:34;;;;;;;10.38;4.47;;;8.40;89.30;;;;;;5053354;28;20045;-59
2022/01/28 18:51:01;;;;;;;9.57;4.88;;;8.40;89.50;;;;;;5053298;28;20041;-58
2022/01/28 18:53:27;;;;;;;9.35;4.95;;;8.40;89.60;;;;;;5052870;28;20052;-58
2022/01/28 18:55:54;;;;;;;10.77;4.53;;;8.40;89.50;;;;;;5051739;28;20045;-59
2022/01/28 18:58:21;;;;;;;9.13;4.28;;;8.40;89.60;;;;;;5053145;28;20045;-55
2022/01/28 19:00:53;;;;;;;11.30;4.82;;;8.40;89.70;;;;;;5052899;28;20087;-60
2022/01/28 19:03:20;;;;;;;11.38;4.63;;;8.40;90.00;;;;;;5053096;28;20492;-55
2022/01/28 19:05:47;;;;;;;10.27;4.35;;;8.40;90.00;;;;;;5052665;28;20049;-56
2022/01/28 19:08:13;;;;;;;10.13;4.45;;;8.40;90.10;;;;;;5052738;28;20140;-55
2022/01/28 19:10:40;;;;;;;9.07;4.03;;;8.50;90.30;;;;;;5052855;28;20036;-55
2022/01/28 19:13:08;;;;;;;7.82;4.07;;;8.40;90.30;;;;;;5051487;28;20557;-57
2022/01/28 19:15:35;;;;;;;9.52;3.97;;;8.50;90.40;;;;;;5052702;28;20059;-56
2022/01/28 19:18:02;;;;;;;6.03;3.40;;;8.50;90.50;;;;;;5052913;28;20441;-58
2022/01/28 19:20:29;;;;;;;6.22;3.25;;;8.50;90.80;;;;;;5052848;28;20068;-56
2022/01/28 19:22:56;;;;;;;6.53;3.08;;;8.50;91.30;;;;;;5052388;28;20049;-52
2022/01/28 19:25:23;;;;;;;6.05;3.10;;;8.50;91.40;;;;;;5053378;28;20041;-58
2022/01/28 19:27:50;;;;;;;5.25;2.85;;;8.60;91.50;;;;;;5052700;28;20044;-58
2022/01/28 19:30:16;;;;;;;5.75;2.60;;;8.60;91.50;;;;;;5052850;28;20554;-55
2022/01/28 19:32:43;;;;;;;9.55;4.40;;;8.60;91.60;;;;;;5052813;28;20124;-56
2022/01/28 19:35:12;;;;;;;5.45;3.22;;;8.60;91.50;;;;;;5033641;28;20045;-56
2022/01/28 19:37:39;;;;;;;4.70;3.03;;;8.70;91.50;;;;;;5038765;28;20460;-59
2022/01/28 19:40:05;;;;;;;6.47;3.70;;;8.70;91.60;;;;;;5033508;28;20034;-56
2022/01/28 19:42:32;;;;;;;3.90;2.70;;;8.70;91.60;;;;;;5051253;28;20111;-60
2022/01/28 19:44:59;;;;;;;6.43;4.20;;;8.70;91.50;;;;;;5050977;28;20385;-57
2022/01/28 19:47:26;;;;;;;6.60;3.97;;;8.70;91.60;;;;;;5052446;28;20074;-58
2022/01/28 19:49:59;;;;;;;5.32;2.88;;;8.70;91.60;;;;;;5051470;28;20048;-59
2022/01/28 19:52:25;;;;;;;5.43;3.40;;;8.70;91.60;;;;;;5032919;28;20190;-57
2022/01/28 19:54:53;;;;;;;6.20;3.45;;;8.70;91.80;;;;;;5032668;28;20047;-57
2022/01/28 19:57:20;;;;;;;6.15;3.50;;;8.70;91.90;;;;;;5032842;28;20041;-56
2022/01/28 19:59:47;;;;;;;6.75;3.83;;;8.70;91.90;;;;;;5032998;28;20140;-56
2022/01/28 20:02:14;;;;;;;7.38;3.38;;;8.70;91.90;;;;;;5033038;28;20068;-57
2022/01/28 20:04:41;;;;;;;6.20;3.50;;;8.70;91.80;;;;;;5040200;28;20646;-56
2022/01/28 20:07:07;;;;;;;6.30;3.53;;;8.80;91.90;;;;;;5052272;28;20041;-55
2022/01/28 20:09:34;;;;;;;5.47;3.20;;;8.80;92.30;;;;;;5052239;28;20041;-58
2022/01/28 20:12:03;;;;;;;5.20;3.05;;;8.80;91.90;;;;;;5052188;28;20041;-58
2022/01/28 20:14:30;;;;;;;10.07;4.13;;;8.80;91.90;;;;;;5052146;28;20076;-57
2022/01/28 20:16:56;;;;;;;5.55;3.15;;;8.70;91.80;;;;;;5052018;28;20041;-59
2022/01/28 20:19:23;;;;;;;7.45;4.18;;;8.70;91.70;;;;;;5052112;28;20037;-56
2022/01/28 20:21:50;;;;;;;8.25;4.47;;;8.70;91.70;;;;;;5051981;28;20041;-52
2022/01/28 20:24:17;;;;;;;5.93;4.07;;;8.70;91.50;;;;;;5050985;28;20048;-57
2022/01/28 20:26:44;;;;;;;7.38;4.22;;;8.70;91.40;;;;;;5051882;28;20040;-56
2022/01/28 20:29:11;;;;;;;6.15;4.72;;;8.70;91.40;;;;;;5052122;28;20083;-57
2022/01/28 20:31:37;;;;;;;9.38;5.35;;;8.70;91.40;;;;;;5051872;28;20114;-55
2022/01/28 20:34:05;;;;;;;9.20;5.63;;;8.70;91.40;;;;;;5051884;28;20060;-55
2022/01/28 20:36:32;;;;;;;7.40;4.68;;;8.70;91.50;;;;;;5051887;28;20033;-55
2022/01/28 20:39:00;;;;;;;9.48;5.38;;;8.70;91.50;;;;;;5051890;28;20065;-54
2022/01/28 20:41:27;;;;;;;9.77;5.53;;;8.70;91.60;;;;;;5051884;28;20045;-55
2022/01/28 20:43:56;;;;;;;8.32;5.30;;;8.70;91.60;;;;;;5051748;28;20511;-57
2022/01/28 20:46:24;;;;;;;9.52;5.43;;;8.70;91.70;;;;;;5050584;28;20389;-55
2022/01/28 20:48:50;;;;;;;8.57;5.72;;;8.70;91.70;;;;;;5051835;28;20045;-57
2022/01/28 20:51:17;;;;;;;11.88;6.85;;;8.70;91.80;;;;;;5051860;28;20044;-56
2022/01/28 20:53:44;;;;;;;8.93;6.10;;;8.70;91.80;;;;;;5051583;28;20048;-53
2022/01/28 20:56:11;;;;;;;9.77;6.13;;;8.70;91.90;;;;;;5050591;28;20115;-54
2022/01/28 20:58:38;;;;;;;12.32;6.68;;;8.70;92.00;;;;;;5051452;28;20094;-54
2022/01/28 21:01:05;;;;;;;11.35;6.60;;;8.70;92.10;;;;;;5051389;28;20071;-55
2022/01/28 21:03:33;;;;;;;11.65;6.05;;;8.70;92.10;;;;;;5048457;28;20049;-55
2022/01/28 21:06:01;;;;;;;10.00;5.90;;;8.80;92.30;;;;;;5049673;28;20045;-57
2022/01/28 21:08:27;;;;;;;10.82;5.97;;;8.80;92.30;;;;;;5053042;28;20404;-53
2022/01/28 21:10:54;;;;;;;11.32;6.22;;;8.80;92.50;;;;;;5055171;28;20112;-58